Time;durP1;ratioP1;P1;durP2;ratioP2;P2;SDS_P1;SDS_P2;PMS_P1;PMS_P2;Temp;Humidity;BMP_temperature;BMP_pressure;BME280_temperature;BME280_humidity;BME280_pressure;Samples;Min_cycle;Max_cycle;Signal;HPM_P1;HPM_P2
2022/12/22 03:26:32;;;;;;;13.05;9.20;;;;;;;;;;10369558;28;20136;-65
2022/12/22 03:31:32;;;;;;;16.77;10.15;;;;;;;;;;10370029;28;20060;-65
2022/12/22 03:36:33;;;;;;;17.33;9.82;;;;;;;;;;10369918;28;20493;-65
2022/12/22 03:46:53;;;;;;;;;;;;;;;;;;10370717;28;20594;-65
2022/12/22 03:51:53;;;;;;;14.52;9.05;;;;;;;;;;10350367;28;20060;-65
2022/12/22 03:56:54;;;;;;;16.25;9.70;;;;;;;;;;10359255;28;20030;-65
2022/12/22 04:01:54;;;;;;;13.32;8.88;;;;;;;;;;10361558;28;20177;-65
2022/12/22 04:06:55;;;;;;;16.17;9.63;;;;;;;;;;10354781;28;20037;-63
2022/12/22 04:17:15;;;;;;;14.93;9.65;;;;;;;;;;10368640;28;20030;-62
2022/12/22 04:22:15;;;;;;;18.55;9.63;;;;;;;;;;10367533;28;20047;-62
2022/12/22 04:27:16;;;;;;;13.65;9.27;;;;;;;;;;10367578;28;20053;-62
2022/12/22 04:32:17;;;;;;;15.10;9.32;;;;;;;;;;10367300;28;20100;-65
2022/12/22 04:37:17;;;;;;;14.43;9.30;;;;;;;;;;10367205;28;20049;-63
2022/12/22 04:42:18;;;;;;;17.05;9.10;;;;;;;;;;10366957;28;20033;-64
2022/12/22 04:47:18;;;;;;;13.13;9.88;;;;;;;;;;10366872;28;20030;-68
2022/12/22 04:52:19;;;;;;;15.00;9.68;;;;;;;;;;10366190;28;20088;-67
2022/12/22 04:57:20;;;;;;;14.10;9.13;;;;;;;;;;10357016;28;20042;-66
2022/12/22 05:02:21;;;;;;;12.95;8.45;;;;;;;;;;10364635;28;20037;-67
2022/12/22 05:07:21;;;;;;;13.40;9.02;;;;;;;;;;10367165;28;20113;-67
2022/12/22 05:17:41;;;;;;;13.25;8.45;;;;;;;;;;10365453;28;20481;-66
2022/12/22 05:22:42;;;;;;;13.43;9.38;;;;;;;;;;10366589;28;20037;-66
2022/12/22 05:27:43;;;;;;;12.60;9.25;;;;;;;;;;10363680;28;20038;-67
2022/12/22 05:32:44;;;;;;;12.05;8.77;;;;;;;;;;10362360;28;20052;-62
2022/12/22 05:37:45;;;;;;;12.23;8.70;;;;;;;;;;10364682;28;20029;-63
2022/12/22 05:42:45;;;;;;;13.85;9.52;;;;;;;;;;10363567;28;20030;-66
2022/12/22 05:47:49;;;;;;;11.45;8.50;;;;;;;;;;10361420;28;20026;-67
2022/12/22 05:52:50;;;;;;;14.48;9.18;;;;;;;;;;10359494;28;20258;-62
2022/12/22 05:57:50;;;;;;;12.88;8.77;;;;;;;;;;10349720;28;20672;-63
2022/12/22 06:02:51;;;;;;;14.85;8.98;;;;;;;;;;10363555;28;20446;-62
2022/12/22 06:07:51;;;;;;;11.63;8.30;;;;;;;;;;10369015;28;20382;-62
2022/12/22 06:12:52;;;;;;;12.50;8.40;;;;;;;;;;10368424;28;20397;-63
2022/12/22 06:17:53;;;;;;;14.98;8.40;;;;;;;;;;10365456;28;20026;-63
2022/12/22 06:22:53;;;;;;;14.15;8.63;;;;;;;;;;10364949;28;20029;-65
2022/12/22 06:27:54;;;;;;;13.48;7.97;;;;;;;;;;10322202;28;1115254;-63
2022/12/22 06:32:54;;;;;;;12.55;8.45;;;;;;;;;;10369076;28;20088;-68
2022/12/22 06:37:55;;;;;;;11.90;8.43;;;;;;;;;;10368765;28;20134;-69
2022/12/22 06:43:07;;;;;;;12.50;9.40;;;;;;;;;;10372133;28;20034;-60
2022/12/22 06:48:10;;;;;;;19.90;10.82;;;;;;;;;;10365601;28;20077;-66
2022/12/22 06:53:11;;;;;;;31.10;13.63;;;;;;;;;;10381631;28;20022;-66
2022/12/22 06:58:12;;;;;;;20.52;12.52;;;;;;;;;;10367877;28;20037;-67
2022/12/22 07:03:12;;;;;;;25.23;13.25;;;;;;;;;;10365653;28;20033;-67
2022/12/22 07:08:13;;;;;;;23.25;12.70;;;;;;;;;;10361386;28;20476;-65
2022/12/22 07:13:19;;;;;;;30.73;13.05;;;;;;;;;;10369546;28;20045;-64
2022/12/22 07:18:20;;;;;;;19.45;12.57;;;;;;;;;;10357148;28;20026;-67
2022/12/22 07:23:20;;;;;;;28.20;12.68;;;;;;;;;;10362518;28;20041;-67
2022/12/22 07:28:21;;;;;;;24.67;12.30;;;;;;;;;;10365862;28;20058;-67
2022/12/22 07:33:22;;;;;;;38.80;12.85;;;;;;;;;;10368585;28;20033;-67
2022/12/22 07:38:22;;;;;;;26.00;11.82;;;;;;;;;;10370449;28;20032;-67
2022/12/22 07:43:23;;;;;;;26.27;12.55;;;;;;;;;;10370459;28;20026;-68
2022/12/22 07:53:43;;;;;;;22.48;11.82;;;;;;;;;;10336070;28;20230;-68
2022/12/22 07:58:43;;;;;;;24.45;12.50;;;;;;;;;;10335450;28;20513;-68
2022/12/22 08:03:44;;;;;;;21.58;12.32;;;;;;;;;;10339458;28;20368;-68
2022/12/22 08:08:45;;;;;;;21.08;11.18;;;;;;;;;;10333794;28;20393;-67
2022/12/22 08:13:49;;;;;;;20.40;12.18;;;;;;;;;;10336712;28;20037;-68
2022/12/22 08:18:49;;;;;;;16.25;11.32;;;;;;;;;;10348333;28;20489;-67
2022/12/22 08:23:50;;;;;;;17.48;11.30;;;;;;;;;;10358260;28;20029;-67
2022/12/22 08:29:11;;;;;;;33.85;10.65;;;;;;;;;;10358807;28;20038;-68
2022/12/22 08:34:14;;;;;;;21.38;11.55;;;;;;;;;;10359678;28;20084;-69
2022/12/22 08:39:16;;;;;;;19.85;10.85;;;;;;;;;;10367576;28;20212;-68
2022/12/22 08:44:26;;;;;;;18.63;11.25;;;;;;;;;;10365465;28;20444;-69
2022/12/22 08:49:26;;;;;;;20.52;10.98;;;;;;;;;;10348738;28;20385;-68
2022/12/22 08:54:27;;;;;;;14.35;10.57;;;;;;;;;;10360274;28;20037;-68
2022/12/22 08:59:28;;;;;;;16.30;10.77;;;;;;;;;;10363432;28;20037;-68
2022/12/22 09:04:28;;;;;;;18.35;11.15;;;;;;;;;;10355101;28;20038;-69
2022/12/22 09:09:33;;;;;;;16.27;11.30;;;;;;;;;;10365628;28;20482;-69
2022/12/22 09:14:34;;;;;;;17.65;10.70;;;;;;;;;;10365851;28;20041;-69
2022/12/22 09:19:35;;;;;;;16.38;10.55;;;;;;;;;;10365930;28;20400;-69
2022/12/22 09:24:35;;;;;;;25.05;10.95;;;;;;;;;;10364692;28;20022;-69
2022/12/22 09:29:36;;;;;;;14.13;10.07;;;;;;;;;;10365263;28;20042;-69
2022/12/22 09:34:37;;;;;;;18.15;10.32;;;;;;;;;;10365729;28;20080;-69
2022/12/22 09:39:37;;;;;;;23.63;10.90;;;;;;;;;;10365502;28;20418;-69
2022/12/22 09:44:43;;;;;;;14.90;9.88;;;;;;;;;;10365457;28;20018;-69
2022/12/22 09:49:44;;;;;;;13.57;9.88;;;;;;;;;;10351145;28;20239;-69
2022/12/22 09:54:45;;;;;;;19.73;10.48;;;;;;;;;;10363915;28;20242;-68
2022/12/22 09:59:46;;;;;;;16.10;10.48;;;;;;;;;;10363543;28;20022;-68
2022/12/22 10:05:37;;;;;;;14.77;9.50;;;;;;;;;;10362843;28;20033;-70
2022/12/22 10:10:37;;;;;;;15.30;10.05;;;;;;;;;;10360750;28;20033;-69
2022/12/22 10:15:40;;;;;;;14.88;10.07;;;;;;;;;;10364419;28;20033;-69
2022/12/22 10:20:45;;;;;;;16.65;10.27;;;;;;;;;;10364232;28;20029;-69
2022/12/22 10:26:06;;;;;;;14.10;9.80;;;;;;;;;;10363013;28;20046;-69
2022/12/22 10:31:28;;;;;;;13.55;9.95;;;;;;;;;;10364179;28;20030;-69
2022/12/22 10:36:32;;;;;;;14.40;9.43;;;;;;;;;;10364724;28;20030;-69
2022/12/22 10:41:45;;;;;;;14.77;9.43;;;;;;;;;;10365475;28;20057;-69
2022/12/22 10:46:52;;;;;;;13.30;9.23;;;;;;;;;;10371059;28;20083;-70
2022/12/22 10:52:32;;;;;;;16.40;9.07;;;;;;;;;;10370132;28;20269;-70
2022/12/22 10:57:33;;;;;;;12.57;9.05;;;;;;;;;;10228798;28;20070;-68
2022/12/22 11:02:37;;;;;;;12.85;9.00;;;;;;;;;;10238102;29;20039;-68
2022/12/22 11:07:44;;;;;;;14.77;9.70;;;;;;;;;;10244700;29;20121;-67
2022/12/22 11:13:15;;;;;;;18.83;10.75;;;;;;;;;;10244173;29;20041;-67
2022/12/22 11:18:30;;;;;;;16.67;11.57;;;;;;;;;;10243130;28;20065;-68
2022/12/22 11:23:55;;;;;;;19.05;10.85;;;;;;;;;;10232535;29;20130;-69
2022/12/22 11:29:11;;;;;;;20.23;10.50;;;;;;;;;;10255680;28;20281;-69
2022/12/22 11:34:50;;;;;;;14.75;10.65;;;;;;;;;;10339931;28;20414;-68
2022/12/22 11:40:41;;;;;;;18.02;10.93;;;;;;;;;;10335900;28;20029;-69
2022/12/22 11:46:33;;;;;;;14.63;9.63;;;;;;;;;;10346462;28;20057;-69
2022/12/22 11:51:56;;;;;;;16.83;10.10;;;;;;;;;;10365188;28;20049;-69
2022/12/22 11:57:17;;;;;;;13.40;9.98;;;;;;;;;;10361127;28;20441;-69
2022/12/22 12:02:41;;;;;;;13.98;9.85;;;;;;;;;;10369352;28;20176;-69
2022/12/22 12:07:50;;;;;;;15.68;9.43;;;;;;;;;;10365663;28;20690;-68
2022/12/22 12:13:11;;;;;;;15.50;10.13;;;;;;;;;;10355567;28;20022;-68
2022/12/22 12:19:02;;;;;;;13.30;9.35;;;;;;;;;;10368551;28;20030;-68
2022/12/22 12:24:26;;;;;;;13.48;9.77;;;;;;;;;;10360698;28;20030;-69
2022/12/22 12:29:39;;;;;;;14.35;9.70;;;;;;;;;;10349991;28;20042;-69
2022/12/22 12:34:45;;;;;;;14.38;9.02;;;;;;;;;;10348769;28;20053;-70
2022/12/22 12:40:18;;;;;;;15.80;9.55;;;;;;;;;;10354476;28;20113;-67
2022/12/22 12:45:42;;;;;;;15.85;9.90;;;;;;;;;;10338604;28;20034;-68
2022/12/22 12:50:42;;;;;;;17.70;10.02;;;;;;;;;;10355818;28;20060;-68
2022/12/22 12:55:51;;;;;;;16.02;9.68;;;;;;;;;;10366969;28;20022;-68
2022/12/22 13:00:51;;;;;;;16.08;10.43;;;;;;;;;;10349135;28;20037;-68
2022/12/22 13:06:01;;;;;;;17.17;10.25;;;;;;;;;;10358738;28;20034;-67
2022/12/22 13:11:01;;;;;;;14.20;10.15;;;;;;;;;;10354127;28;20025;-67
2022/12/22 13:16:01;;;;;;;15.02;10.68;;;;;;;;;;10366681;28;20022;-68
2022/12/22 13:21:05;;;;;;;16.60;11.45;;;;;;;;;;10360825;28;20042;-67
2022/12/22 13:26:09;;;;;;;15.10;11.13;;;;;;;;;;10347175;28;20104;-68
2022/12/22 13:31:20;;;;;;;18.10;11.57;;;;;;;;;;10351189;28;20064;-67
2022/12/22 13:36:26;;;;;;;19.20;11.63;;;;;;;;;;10352373;28;20040;-68
2022/12/22 13:41:28;;;;;;;15.55;11.55;;;;;;;;;;10357527;28;20072;-69
2022/12/22 13:46:31;;;;;;;21.23;11.20;;;;;;;;;;10357071;28;20385;-62
2022/12/22 13:51:34;;;;;;;53.28;12.90;;;;;;;;;;10357431;28;20402;-61
2022/12/22 13:56:37;;;;;;;48.78;12.90;;;;;;;;;;10359210;28;20030;-62
2022/12/22 14:01:47;;;;;;;30.08;12.68;;;;;;;;;;10362275;28;20026;-60
2022/12/22 14:06:47;;;;;;;22.98;13.20;;;;;;;;;;10350480;28;20539;-60
2022/12/22 14:11:55;;;;;;;31.23;12.13;;;;;;;;;;10361427;28;20165;-65
2022/12/22 14:16:56;;;;;;;22.93;11.93;;;;;;;;;;10355014;28;20030;-60
2022/12/22 14:22:02;;;;;;;24.55;12.13;;;;;;;;;;10364820;28;20033;-60
2022/12/22 14:27:02;;;;;;;22.17;11.32;;;;;;;;;;10361861;28;20078;-61
2022/12/22 14:32:03;;;;;;;19.15;11.65;;;;;;;;;;10364243;28;20113;-60
2022/12/22 14:37:03;;;;;;;22.10;11.77;;;;;;;;;;10366389;28;20120;-61
2022/12/22 14:42:04;;;;;;;22.35;11.20;;;;;;;;;;10360290;28;20037;-61
2022/12/22 14:47:16;;;;;;;18.60;10.88;;;;;;;;;;10356110;28;20042;-61
2022/12/22 14:52:19;;;;;;;17.90;11.50;;;;;;;;;;10353954;28;20045;-61
2022/12/22 14:57:26;;;;;;;16.85;10.73;;;;;;;;;;10359988;28;20022;-60
2022/12/22 15:02:34;;;;;;;16.38;11.35;;;;;;;;;;10363759;28;20076;-61
2022/12/22 15:07:42;;;;;;;16.03;10.50;;;;;;;;;;10367402;28;20034;-60
2022/12/22 15:12:43;;;;;;;21.60;10.40;;;;;;;;;;10369155;28;20049;-59
2022/12/22 15:17:45;;;;;;;16.77;10.27;;;;;;;;;;10355090;28;20437;-59
2022/12/22 15:22:45;;;;;;;20.55;10.05;;;;;;;;;;10368316;28;20079;-59
2022/12/22 15:27:45;;;;;;;13.65;9.57;;;;;;;;;;10367990;28;20501;-59
2022/12/22 15:32:46;;;;;;;20.83;10.27;;;;;;;;;;10359284;28;20072;-59
2022/12/22 15:37:46;;;;;;;17.08;9.35;;;;;;;;;;10356422;28;20467;-59
2022/12/22 15:42:47;;;;;;;16.60;9.30;;;;;;;;;;10355394;28;20029;-59
2022/12/22 15:47:49;;;;;;;17.33;9.93;;;;;;;;;;10354510;28;20022;-59
2022/12/22 15:52:54;;;;;;;14.30;9.52;;;;;;;;;;10367156;28;20377;-59
2022/12/22 15:57:56;;;;;;;14.30;9.30;;;;;;;;;;10358829;28;20049;-59
2022/12/22 16:02:56;;;;;;;16.02;9.70;;;;;;;;;;10362527;28;20042;-59
2022/12/22 16:07:56;;;;;;;15.68;9.68;;;;;;;;;;10356043;28;20026;-59
2022/12/22 16:13:01;;;;;;;13.77;9.57;;;;;;;;;;10342387;28;20084;-59
2022/12/22 16:18:02;;;;;;;20.15;9.85;;;;;;;;;;10340575;28;20034;-59
2022/12/22 16:23:03;;;;;;;16.08;9.32;;;;;;;;;;10366876;28;20030;-61
2022/12/22 16:28:03;;;;;;;13.35;9.98;;;;;;;;;;10363721;28;20042;-60
2022/12/22 16:33:04;;;;;;;15.27;9.75;;;;;;;;;;10364276;28;20030;-60
2022/12/22 16:38:04;;;;;;;18.92;9.77;;;;;;;;;;10356342;28;20477;-60
2022/12/22 16:43:25;;;;;;;14.10;10.25;;;;;;;;;;10363352;28;20473;-59
2022/12/22 16:48:31;;;;;;;16.85;11.23;;;;;;;;;;10345700;28;20042;-59
2022/12/22 16:53:31;;;;;;;17.85;10.30;;;;;;;;;;10366561;28;20029;-59
2022/12/22 16:58:32;;;;;;;17.27;9.38;;;;;;;;;;10341038;28;20429;-60
2022/12/22 17:03:32;;;;;;;17.63;10.93;;;;;;;;;;10363392;28;20030;-60
2022/12/22 17:08:35;;;;;;;16.65;10.10;;;;;;;;;;10365155;28;20044;-59
2022/12/22 17:13:35;;;;;;;15.85;9.98;;;;;;;;;;10363379;28;20285;-60
2022/12/22 17:18:36;;;;;;;14.70;10.60;;;;;;;;;;10351449;28;20280;-60
2022/12/22 17:23:47;;;;;;;18.80;10.43;;;;;;;;;;10359250;28;20038;-59
2022/12/22 17:28:47;;;;;;;14.52;9.73;;;;;;;;;;10352419;28;20487;-60
2022/12/22 17:33:48;;;;;;;15.95;10.57;;;;;;;;;;10361373;28;20030;-60
2022/12/22 17:38:48;;;;;;;14.25;9.52;;;;;;;;;;10356149;28;20030;-59
2022/12/22 17:43:48;;;;;;;14.07;10.15;;;;;;;;;;10356158;28;20526;-61
2022/12/22 17:48:49;;;;;;;15.43;10.52;;;;;;;;;;10342351;28;20034;-60
2022/12/22 17:53:50;;;;;;;18.05;10.25;;;;;;;;;;10369325;28;20030;-60
2022/12/22 17:58:50;;;;;;;15.70;10.07;;;;;;;;;;10348162;28;20386;-59
2022/12/22 18:03:51;;;;;;;16.35;10.93;;;;;;;;;;10369251;28;20025;-60
2022/12/22 18:08:53;;;;;;;15.10;10.07;;;;;;;;;;10368623;28;20087;-59
2022/12/22 18:13:55;;;;;;;17.77;10.23;;;;;;;;;;10371056;28;20030;-59
2022/12/22 18:18:56;;;;;;;18.75;11.30;;;;;;;;;;10370248;28;20069;-61
2022/12/22 18:23:56;;;;;;;33.95;14.13;;;;;;;;;;10366985;28;20117;-59
2022/12/22 18:28:56;;;;;;;22.27;11.15;;;;;;;;;;10369710;28;20076;-59
2022/12/22 18:33:57;;;;;;;20.27;11.27;;;;;;;;;;10366651;28;20038;-59
2022/12/22 18:38:58;;;;;;;19.88;11.00;;;;;;;;;;10360515;28;20041;-59
2022/12/22 18:43:58;;;;;;;20.10;11.00;;;;;;;;;;10370637;28;20034;-59
2022/12/22 18:48:58;;;;;;;19.45;11.00;;;;;;;;;;10369636;28;20385;-59
2022/12/22 18:53:58;;;;;;;23.38;11.80;;;;;;;;;;10371013;28;20099;-60
2022/12/22 18:58:59;;;;;;;15.80;11.02;;;;;;;;;;10359195;28;20033;-59
2022/12/22 19:03:59;;;;;;;15.57;10.52;;;;;;;;;;10368989;28;20025;-59
2022/12/22 19:08:59;;;;;;;24.15;11.20;;;;;;;;;;10368403;28;20032;-59
2022/12/22 19:13:59;;;;;;;21.20;11.13;;;;;;;;;;10367784;28;20036;-59
2022/12/22 19:19:00;;;;;;;18.40;11.13;;;;;;;;;;10364281;28;20046;-59
2022/12/22 19:24:00;;;;;;;18.92;10.43;;;;;;;;;;10361733;28;20029;-59
2022/12/22 19:29:01;;;;;;;17.90;10.82;;;;;;;;;;10368228;28;20117;-59
2022/12/22 19:34:03;;;;;;;17.57;10.80;;;;;;;;;;10361134;28;20030;-60
2022/12/22 19:39:03;;;;;;;14.43;9.75;;;;;;;;;;10361244;28;21022;-59
2022/12/22 19:44:03;;;;;;;17.38;10.88;;;;;;;;;;10363328;28;20034;-59
2022/12/22 19:49:04;;;;;;;16.40;10.13;;;;;;;;;;10362163;28;20374;-59
2022/12/22 19:54:04;;;;;;;14.82;9.52;;;;;;;;;;10375272;28;20026;-59
2022/12/22 19:59:06;;;;;;;14.50;10.20;;;;;;;;;;10363367;28;20026;-59
2022/12/22 20:04:10;;;;;;;12.93;9.57;;;;;;;;;;10365247;28;20080;-59
2022/12/22 20:09:10;;;;;;;14.18;9.77;;;;;;;;;;10365118;28;20343;-59
2022/12/22 20:14:16;;;;;;;14.98;9.35;;;;;;;;;;10364006;28;20026;-59
2022/12/22 20:19:16;;;;;;;12.43;8.63;;;;;;;;;;10364653;28;20041;-59
2022/12/22 20:24:19;;;;;;;19.83;10.10;;;;;;;;;;10362595;28;20509;-59
2022/12/22 20:29:20;;;;;;;13.98;8.65;;;;;;;;;;10359922;28;20120;-59
2022/12/22 20:34:20;;;;;;;13.10;9.63;;;;;;;;;;10364682;28;20469;-59
2022/12/22 20:39:20;;;;;;;12.50;8.90;;;;;;;;;;10373513;28;20036;-59
2022/12/22 20:44:21;;;;;;;13.70;9.23;;;;;;;;;;10371438;28;20041;-59
2022/12/22 20:49:21;;;;;;;14.23;9.32;;;;;;;;;;10361450;28;20021;-59
2022/12/22 20:54:21;;;;;;;13.43;9.57;;;;;;;;;;10364168;28;20030;-59
2022/12/22 20:59:23;;;;;;;13.82;9.55;;;;;;;;;;10362898;28;20034;-59
2022/12/22 21:04:23;;;;;;;15.90;9.70;;;;;;;;;;10361623;28;20536;-59
2022/12/22 21:09:24;;;;;;;11.90;8.80;;;;;;;;;;10363190;28;20083;-59
2022/12/22 21:14:24;;;;;;;11.55;8.93;;;;;;;;;;10362685;28;20040;-59
2022/12/22 21:19:24;;;;;;;14.65;8.63;;;;;;;;;;10360227;28;20033;-59
2022/12/22 21:24:25;;;;;;;12.97;9.13;;;;;;;;;;10363765;28;20412;-59
2022/12/22 21:29:25;;;;;;;15.07;9.63;;;;;;;;;;10363317;28;20116;-59
2022/12/22 21:34:26;;;;;;;12.07;9.35;;;;;;;;;;10363276;28;20037;-59
2022/12/22 21:39:26;;;;;;;13.65;8.70;;;;;;;;;;10353174;28;20100;-59
2022/12/22 21:44:27;;;;;;;16.13;9.23;;;;;;;;;;10357991;28;20045;-59
2022/12/22 21:49:28;;;;;;;16.13;8.63;;;;;;;;;;10358522;28;20021;-59
2022/12/22 21:54:28;;;;;;;13.38;9.13;;;;;;;;;;10361018;28;20427;-59
2022/12/22 21:59:29;;;;;;;13.15;9.35;;;;;;;;;;10360560;28;20026;-59
2022/12/22 22:04:29;;;;;;;13.23;9.02;;;;;;;;;;10363426;28;20030;-59
2022/12/22 22:09:29;;;;;;;11.68;8.90;;;;;;;;;;10363522;28;20034;-59
2022/12/22 22:14:29;;;;;;;15.27;9.13;;;;;;;;;;10362819;28;20037;-59
2022/12/22 22:19:30;;;;;;;12.95;8.88;;;;;;;;;;10363360;28;20029;-59
2022/12/22 22:24:30;;;;;;;12.32;8.38;;;;;;;;;;10359996;28;20079;-59
2022/12/22 22:29:30;;;;;;;13.48;9.32;;;;;;;;;;10359959;28;20397;-60
2022/12/22 22:34:31;;;;;;;14.17;9.97;;;;;;;;;;10358936;28;20057;-59
2022/12/22 22:39:31;;;;;;;17.35;9.80;;;;;;;;;;10365803;28;20539;-59
2022/12/22 22:44:31;;;;;;;16.10;10.93;;;;;;;;;;10365587;28;20516;-59
2022/12/22 22:49:31;;;;;;;17.63;10.50;;;;;;;;;;10369722;28;20037;-59
2022/12/22 22:54:32;;;;;;;15.73;10.75;;;;;;;;;;10363472;28;20038;-59
2022/12/22 22:59:32;;;;;;;14.68;10.43;;;;;;;;;;10362136;28;20537;-60
2022/12/22 23:04:32;;;;;;;14.83;10.30;;;;;;;;;;10358899;28;20474;-61
2022/12/22 23:09:33;;;;;;;18.98;11.15;;;;;;;;;;10355840;28;20021;-59
2022/12/22 23:14:33;;;;;;;16.23;10.95;;;;;;;;;;10358813;28;20018;-58
2022/12/22 23:19:34;;;;;;;15.25;10.18;;;;;;;;;;10361747;28;20049;-60
2022/12/22 23:24:34;;;;;;;14.65;9.85;;;;;;;;;;10352181;28;20166;-61
2022/12/22 23:29:35;;;;;;;14.23;9.77;;;;;;;;;;10346377;28;20042;-61
2022/12/22 23:34:35;;;;;;;15.73;10.65;;;;;;;;;;10365743;28;21024;-60
2022/12/22 23:39:35;;;;;;;14.23;10.02;;;;;;;;;;10355971;28;20374;-60
2022/12/22 23:44:35;;;;;;;14.55;10.00;;;;;;;;;;10343073;28;20026;-60
2022/12/22 23:49:36;;;;;;;15.75;10.18;;;;;;;;;;10343116;28;20036;-61
2022/12/22 23:54:36;;;;;;;14.27;9.82;;;;;;;;;;10358893;28;20026;-60
2022/12/22 23:59:36;;;;;;;20.25;10.60;;;;;;;;;;10352074;28;20076;-60
